Crane — ZR3519 — position and weather

sailwx.info

Track history (hours):
 
Tides and Currents Weather Stations Pressure Air Temp Water Temp Dewpoint Dewpoint Depression Visibility Wind Speed Wind Dir Waves Ship Positions

Crane

Last reported at 2016-Jul-23 02:12 UTC. Time now 2016-Jul-23 23:06 UTC.
Position S 29°52' E 031°01'.

MMSI: 601085000.

Date/timePositionNaut miles runAvg speedWind from/ knotsBaromVisibWave heightAir tempDewpointWater temp
2016-Jul-23 02:12S 29°52' E 031°01'3 3.3
2016-Jul-23 01:22S 29°52' E 031°04'1 0.8
2016-Jul-23 00:33S 29°52' E 031°05'1 0.4
2016-Jul-22 20:24S 29°52' E 031°03'1 1.3
2016-Jul-22 19:34S 29°52' E 031°02'2 0.2
2016-Jul-22 11:33S 29°53' E 030°60'0 0.1
2016-Jul-22 09:17S 29°53' E 031°00'4 5.3
2016-Jul-22 08:33S 29°52' E 031°04'1 0.6
2016-Jul-22 07:33S 29°52' E 031°04'4 0.3
2016-Jul-21 20:28S 29°53' E 030°60'0 0.0
2016-Jul-21 19:33S 29°53' E 030°60'2 2.4
2016-Jul-21 18:33S 29°53' E 031°03'2 1.6
2016-Jul-21 17:33S 29°52' E 031°04'2 2.5
2016-Jul-21 16:33S 29°52' E 031°02'1 0.0
2016-Jul-20 20:34S 29°52' E 031°01'0 0.0
2016-Jul-20 19:34S 29°52' E 031°01'3 3.3
2016-Jul-20 18:33S 29°52' E 031°05'2 1.6
2016-Jul-20 17:34S 29°52' E 031°03'3 0.1
2016-Jul-19 19:34S 29°53' E 030°60'3 3.4
2016-Jul-19 18:34S 29°52' E 031°04'3 2.5
2016-Jul-19 17:34S 29°52' E 031°06'5 4.7
2016-Jul-19 16:33S 29°52' E 031°01'1 0.1
2016-Jul-18 22:33S 29°53' E 030°60'2 2.5
2016-Jul-18 21:33S 29°53' E 031°03'4 4.3
2016-Jul-18 20:34S 29°52' E 031°08'3 3.4
2016-Jul-18 19:33S 29°52' E 031°04'2 0.1
2016-Jul-17 00:33S 29°52' E 031°01'5 5.2
2016-Jul-16 23:33S 29°53' E 031°07'4 4.4
2016-Jul-16 22:33S 29°52' E 031°02'2 0.2
2016-Jul-16 10:33S 29°53' E 030°60'0 0.0
2016-Jul-16 09:33S 29°53' E 030°60'2 1.9
2016-Jul-16 08:33S 29°52' E 031°02'4 3.8
2016-Jul-16 07:33S 29°52' E 031°06'3 2.8
2016-Jul-16 06:33S 29°52' E 031°03'3 1.3
2016-Jul-16 04:33S 29°53' E 030°60'0 0.0
2016-Jul-15 19:33S 29°53' E 030°60'4 4.4
2016-Jul-15 18:33S 29°52' E 031°05'1 0.9
2016-Jul-15 17:33S 29°52' E 031°04'3 0.2
2016-Jul-15 00:31S 29°53' E 030°60'3 2.7
2016-Jul-14 23:33S 29°52' E 031°03'4 3.5
2016-Jul-14 22:33S 29°53' E 031°07'5 5.0
2016-Jul-14 21:33S 29°52' E 031°01'0 0.0
2016-Jul-13 15:09S 29°52' E 031°01'0 0.0
2016-Jul-13 14:33S 29°52' E 031°01'0 0.0
2016-Jul-13 13:33S 29°52' E 031°01'0 0.0
2016-Jul-13 12:33S 29°52' E 031°01'0 0.0
2016-Jul-13 11:33S 29°52' E 031°01'0 0.0
2016-Jul-13 10:33S 29°52' E 031°01'0 0.0
2016-Jul-13 09:33S 29°52' E 031°01'0 0.0
2016-Jul-13 08:33S 29°52' E 031°01'4 3.7
2016-Jul-13 07:33S 29°52' E 031°05'2 1.9
2016-Jul-13 06:33S 29°52' E 031°03'  
Track history (hours):
 
Tides and Currents Weather Stations Pressure Air Temp Water Temp Dewpoint Dewpoint Depression Visibility Wind Speed Wind Dir Waves Ship Positions

Crane

Last reported at 2016-Jul-23 02:12 UTC. Time now 2016-Jul-23 23:06 UTC.
Position S 29°52' E 031°01'.

MMSI: 601085000.

Date/timePositionNaut miles runAvg speedWind from/ knotsBaromVisibWave heightAir tempDewpointWater temp
2016-Jul-23 02:12S 29°52' E 031°01'3 3.3
2016-Jul-23 01:22S 29°52' E 031°04'1 0.8
2016-Jul-23 00:33S 29°52' E 031°05'1 0.4
2016-Jul-22 20:24S 29°52' E 031°03'1 1.3
2016-Jul-22 19:34S 29°52' E 031°02'2 0.2
2016-Jul-22 11:33S 29°53' E 030°60'0 0.1
2016-Jul-22 09:17S 29°53' E 031°00'4 5.3
2016-Jul-22 08:33S 29°52' E 031°04'1 0.6
2016-Jul-22 07:33S 29°52' E 031°04'4 0.3
2016-Jul-21 20:28S 29°53' E 030°60'0 0.0
2016-Jul-21 19:33S 29°53' E 030°60'2 2.4
2016-Jul-21 18:33S 29°53' E 031°03'2 1.6
2016-Jul-21 17:33S 29°52' E 031°04'2 2.5
2016-Jul-21 16:33S 29°52' E 031°02'1 0.0
2016-Jul-20 20:34S 29°52' E 031°01'0 0.0
2016-Jul-20 19:34S 29°52' E 031°01'3 3.3
2016-Jul-20 18:33S 29°52' E 031°05'2 1.6
2016-Jul-20 17:34S 29°52' E 031°03'3 0.1
2016-Jul-19 19:34S 29°53' E 030°60'3 3.4
2016-Jul-19 18:34S 29°52' E 031°04'3 2.5
2016-Jul-19 17:34S 29°52' E 031°06'5 4.7
2016-Jul-19 16:33S 29°52' E 031°01'1 0.1
2016-Jul-18 22:33S 29°53' E 030°60'2 2.5
2016-Jul-18 21:33S 29°53' E 031°03'4 4.3
2016-Jul-18 20:34S 29°52' E 031°08'3 3.4
2016-Jul-18 19:33S 29°52' E 031°04'2 0.1
2016-Jul-17 00:33S 29°52' E 031°01'5 5.2
2016-Jul-16 23:33S 29°53' E 031°07'4 4.4
2016-Jul-16 22:33S 29°52' E 031°02'2 0.2
2016-Jul-16 10:33S 29°53' E 030°60'0 0.0
2016-Jul-16 09:33S 29°53' E 030°60'2 1.9
2016-Jul-16 08:33S 29°52' E 031°02'4 3.8
2016-Jul-16 07:33S 29°52' E 031°06'3 2.8
2016-Jul-16 06:33S 29°52' E 031°03'3 1.3
2016-Jul-16 04:33S 29°53' E 030°60'0 0.0
2016-Jul-15 19:33S 29°53' E 030°60'4 4.4
2016-Jul-15 18:33S 29°52' E 031°05'1 0.9
2016-Jul-15 17:33S 29°52' E 031°04'3 0.2
2016-Jul-15 00:31S 29°53' E 030°60'3 2.7
2016-Jul-14 23:33S 29°52' E 031°03'4 3.5
2016-Jul-14 22:33S 29°53' E 031°07'5 5.0
2016-Jul-14 21:33S 29°52' E 031°01'0 0.0
2016-Jul-13 15:09S 29°52' E 031°01'0 0.0
2016-Jul-13 14:33S 29°52' E 031°01'0 0.0
2016-Jul-13 13:33S 29°52' E 031°01'0 0.0
2016-Jul-13 12:33S 29°52' E 031°01'0 0.0
2016-Jul-13 11:33S 29°52' E 031°01'0 0.0
2016-Jul-13 10:33S 29°52' E 031°01'0 0.0
2016-Jul-13 09:33S 29°52' E 031°01'0 0.0
2016-Jul-13 08:33S 29°52' E 031°01'4 3.7
2016-Jul-13 07:33S 29°52' E 031°05'2 1.9
2016-Jul-13 06:33S 29°52' E 031°03'  

Dump ship's entire track history